Weather at KGTV-10 Parking Lot Heliport

Public forecast

Using degrees Fahrenheit for public forecast. Weather courtesy of forecast.io.

Closest aviation weather report (METAR) to KGTV-10 Parking Lot Heliport

Closest report is San Diego International Airport, 4.7 nm (8.8 km) W.

2024/05/23 02:51 (retrieved 1 hour ago)

KSAN 230251Z VRB06KT 10SM BKN021 17/11 A2998 RMK AO2 SLP151 T01670111 53004

Closest aviation forecast (TAF) to KGTV-10 Parking Lot Heliport

Forecast is more than 6 hours old.

Closest forecast is March Air Reserve Base, 70.1 nm (129.9 km) N.

2024/05/22 20:21 (retrieved 8 hours ago)

TAF TAF KRIV 222000Z 2220/2402 32009KT 9999 SKC 510005 QNH2988INS TEMPO 2221/2301 32012G20KT BECMG 2303/2304 VRB04KT 9999 SKC QNH2990INS BECMG 2308/2309 VRB04KT 9999 FEW006 QNH2991INS BECMG 2309/2310 VRB04KT 4800 BR OVC006 QNH2990INS BECMG 2315/2316 VRB04KT 9000 BR OVC008 QNH2994INS BECMG 2316/2317 VRB05KT 9999 NSW BKN010 QNH2994INS BECMG 2317/2318 VRB05KT 9999 SKC QNH2994INS BECMG 2319/2320 32012KT 9999 SKC QNH2994INS TX24/2222Z TN10/2313Z